Time;durP1;ratioP1;P1;durP2;ratioP2;P2;SDS_P1;SDS_P2;PMS_P1;PMS_P2;Temp;Humidity;BMP_temperature;BMP_pressure;BME280_temperature;BME280_humidity;BME280_pressure;Samples;Min_cycle;Max_cycle;Signal;HPM_P1;HPM_P2
2024/03/02 00:02:17;;;;;;;;;90.25;73.50;;;;;6.32;100.00;98937.97;6280207;20;4429544;-40
2024/03/02 00:04:47;;;;;;;;;81.33;62.67;;;;;6.19;100.00;98936.94;6308545;20;3635767;-39
2024/03/02 00:07:16;;;;;;;;;85.67;66.67;;;;;6.40;100.00;98939.31;6309624;20;3666949;-40
2024/03/02 00:09:46;;;;;;;;;83.67;63.67;;;;;6.91;100.00;98945.28;6279281;20;3629455;-39
2024/03/02 00:12:16;;;;;;;;;79.00;61.00;;;;;6.89;100.00;98949.84;6311168;20;2763872;-40
2024/03/02 00:14:46;;;;;;;;;77.67;62.67;;;;;6.75;100.00;98950.66;6274471;20;3625539;-39
2024/03/02 00:17:27;;;;;;;;;81.33;63.67;;;;;6.70;100.00;98950.06;6308263;20;3639883;-39
2024/03/02 00:19:57;;;;;;;;;80.67;61.67;;;;;7.10;100.00;98951.25;6309702;20;3638920;-42
2024/03/02 00:22:27;;;;;;;;;79.00;60.00;;;;;7.42;100.00;98951.13;6306973;20;3643780;-40
2024/03/02 00:24:57;;;;;;;;;80.33;60.00;;;;;7.41;100.00;98944.09;6276619;20;3644112;-40
2024/03/02 00:27:27;;;;;;;;;83.33;65.33;;;;;7.59;100.00;98950.97;6308382;20;3645123;-40
2024/03/02 00:29:56;;;;;;;;;82.67;69.00;;;;;7.64;100.00;98946.22;6277715;20;3650289;-40
2024/03/02 00:32:28;;;;;;;;;85.33;70.67;;;;;7.14;100.00;98941.28;6309535;20;3665939;-41
2024/03/02 00:34:58;;;;;;;;;90.25;72.25;;;;;7.54;100.00;98934.38;6274973;20;3686702;-41
2024/03/02 00:37:29;;;;;;;;;85.67;71.00;;;;;7.61;100.00;98933.03;6274544;20;3668140;-42
2024/03/02 00:39:58;;;;;;;;;83.67;66.67;;;;;7.61;100.00;98927.72;6273934;20;3667932;-44
2024/03/02 00:42:28;;;;;;;;;85.67;74.33;;;;;7.76;100.00;98925.03;6277020;20;3648147;-40
2024/03/02 00:44:58;;;;;;;;;85.33;74.33;;;;;7.54;100.00;98923.69;6275930;20;3651291;-42
2024/03/02 00:47:27;;;;;;;;;87.67;75.67;;;;;7.64;100.00;98927.50;6275399;20;3657627;-40
2024/03/02 00:49:57;;;;;;;;;86.00;74.00;;;;;7.63;100.00;98923.09;6273839;20;3652333;-41
2024/03/02 00:52:27;;;;;;;;;85.00;75.33;;;;;7.68;100.00;98922.81;6278219;20;3654454;-41
2024/03/02 00:54:58;;;;;;;;;88.50;74.50;;;;;7.25;100.00;98922.78;6304847;20;1941055;-43
2024/03/02 00:57:31;;;;;;;;;88.33;75.00;;;;;7.28;100.00;98924.41;6277501;20;3663788;-41
2024/03/02 01:00:03;;;;;;;;;89.25;75.25;;;;;7.34;100.00;98921.38;6275798;20;4422198;-41
2024/03/02 01:02:32;;;;;;;;;88.00;73.33;;;;;7.67;100.00;98924.66;6305849;20;3663811;-42
2024/03/02 01:05:02;;;;;;;;;83.75;69.00;;;;;7.51;100.00;98920.34;6275747;20;4416075;-43
2024/03/02 01:07:32;;;;;;;;;87.50;69.25;;;;;7.45;100.00;98927.78;6308786;20;4423171;-42
2024/03/02 01:10:01;;;;;;;;;85.33;61.00;;;;;7.40;100.00;98921.88;6309385;20;3639821;-44
2024/03/02 01:12:31;;;;;;;;;84.00;70.00;;;;;7.63;100.00;98923.09;6308545;20;3649320;-42
2024/03/02 01:15:01;;;;;;;;;79.33;64.00;;;;;7.70;100.00;98923.59;6273546;20;3632568;-43
2024/03/02 01:17:30;;;;;;;;;80.33;64.33;;;;;7.72;100.00;98926.19;6304781;20;3635660;-42
2024/03/02 01:20:00;;;;;;;;;85.00;63.33;;;;;7.58;100.00;98929.69;6308351;20;3662145;-43
2024/03/02 01:22:29;;;;;;;;;81.67;61.67;;;;;7.61;100.00;98924.16;6275043;20;3632542;-42
2024/03/02 01:24:59;;;;;;;;;100.75;87.50;;;;;7.37;100.00;98926.50;6309150;20;4422181;-42
2024/03/02 01:27:29;;;;;;;;;85.67;68.67;;;;;7.25;100.00;98928.13;6307572;20;3668981;-48
2024/03/02 01:29:59;;;;;;;;;82.00;64.33;;;;;7.63;100.00;98916.91;6277454;20;3650226;-44
2024/03/02 01:32:30;;;;;;;;;79.00;61.67;;;;;7.79;100.00;98919.47;6276634;20;3643062;-40
2024/03/02 01:34:58;;;;;;;;;111.50;99.50;;;;;7.79;100.00;98912.31;6303542;20;1954523;-42
2024/03/02 01:37:28;;;;;;;;;107.33;92.33;;;;;7.40;100.00;98915.66;6276464;20;3695149;-43
2024/03/02 01:39:58;;;;;;;;;84.67;73.67;;;;;7.12;100.00;98914.66;6276360;20;3645045;-42
2024/03/02 01:42:27;;;;;;;;;80.00;63.67;;;;;6.88;100.00;98913.44;6307380;20;3635725;-42
2024/03/02 01:44:57;;;;;;;;;72.67;59.33;;;;;7.41;100.00;98923.56;6302266;20;2860857;-44
2024/03/02 01:47:26;;;;;;;;;78.00;61.33;;;;;7.31;100.00;98922.41;6307510;20;3631245;-40
2024/03/02 01:49:56;;;;;;;;;80.67;62.00;;;;;7.55;100.00;98914.69;6306853;20;3646219;-40
2024/03/02 01:52:25;;;;;;;;;77.50;61.00;;;;;7.49;100.00;98915.09;6274138;20;2682618;-41
2024/03/02 01:54:55;;;;;;;;;83.67;64.33;;;;;7.69;100.00;98917.41;6304371;20;3661783;-41
2024/03/02 01:57:24;;;;;;;;;81.00;64.00;;;;;7.79;100.00;98916.81;6275725;20;3656618;-43
2024/03/02 01:59:54;;;;;;;;;82.33;70.33;;;;;7.76;100.00;98920.53;6270630;20;3647147;-43
2024/03/02 02:02:23;;;;;;;;;82.00;66.67;;;;;7.85;100.00;98917.28;6303289;20;3653409;-42
2024/03/02 02:04:53;;;;;;;;;73.33;58.00;;;;;7.79;100.00;98917.66;6270122;20;2872206;-41
2024/03/02 02:07:23;;;;;;;;;79.00;59.33;;;;;7.76;100.00;98912.50;6306698;20;3647162;-41
2024/03/02 02:09:52;;;;;;;;;85.00;70.00;;;;;7.94;100.00;98910.50;6306115;20;3662760;-43
2024/03/02 02:12:22;;;;;;;;;84.33;70.33;;;;;7.77;100.00;98911.59;6274829;20;3665887;-40
2024/03/02 02:14:52;;;;;;;;;74.67;56.00;;;;;7.62;100.00;98909.84;6273458;20;3636728;-42
2024/03/02 02:17:22;;;;;;;;;83.00;67.67;;;;;7.90;100.00;98912.53;6307478;20;3670092;-41
2024/03/02 02:19:51;;;;;;;;;82.33;67.00;;;;;7.75;100.00;98915.31;6270600;20;3647156;-40
2024/03/02 02:22:21;;;;;;;;;82.67;69.67;;;;;7.79;100.00;98916.81;6271780;20;3664837;-41
2024/03/02 02:24:50;;;;;;;;;84.33;67.33;;;;;7.87;100.00;98910.06;6270623;20;3660681;-42
2024/03/02 02:27:20;;;;;;;;;83.67;71.00;;;;;7.88;100.00;98905.56;6272136;20;3656576;-41
2024/03/02 02:29:50;;;;;;;;;83.67;69.33;;;;;7.85;100.00;98911.09;6273690;20;3665894;-40
2024/03/02 02:32:19;;;;;;;;;78.33;61.33;;;;;7.61;100.00;98914.34;6277087;20;3635682;-40
2024/03/02 02:34:53;;;;;;;;;81.00;65.67;;;;;7.69;100.00;98909.38;6305295;20;3657293;-42
2024/03/02 02:37:23;;;;;;;;;80.33;66.00;;;;;7.63;100.00;98912.41;6304210;20;3661732;-41
2024/03/02 02:39:52;;;;;;;;;82.00;65.33;;;;;7.58;100.00;98909.19;6275660;20;3646099;-40
2024/03/02 02:42:22;;;;;;;;;83.33;66.00;;;;;7.86;100.00;98919.00;6303028;20;3673263;-41
2024/03/02 02:44:52;;;;;;;;;82.33;63.33;;;;;7.48;100.00;98926.75;6274851;20;3651322;-41
2024/03/02 02:47:21;;;;;;;;;76.33;59.00;;;;;7.40;100.00;98927.22;6273721;20;2883788;-42
2024/03/02 02:49:50;;;;;;;;;79.33;62.00;;;;;7.93;100.00;98923.97;6309176;20;3627400;-42
2024/03/02 02:52:21;;;;;;;;;78.00;60.33;;;;;8.08;100.00;98926.53;6274738;20;3630450;-41
2024/03/02 02:54:51;;;;;;;;;72.67;57.33;;;;;8.06;100.00;98931.13;6307133;20;3652323;-41
2024/03/02 02:57:21;;;;;;;;;76.67;61.00;;;;;8.02;100.00;98928.72;6305598;20;3619151;-40
2024/03/02 02:59:50;;;;;;;;;76.00;60.00;;;;;7.96;100.00;98935.34;6307363;20;3622125;-42
2024/03/02 03:02:20;;;;;;;;;80.00;60.00;;;;;7.82;100.00;98935.31;6303973;20;3644060;-42
2024/03/02 03:04:49;;;;;;;;;80.33;60.33;;;;;8.00;100.00;98928.81;6305324;20;3655461;-43
2024/03/02 03:07:19;;;;;;;;;76.67;60.33;;;;;7.92;100.00;98939.13;6272273;20;3626282;-41
2024/03/02 03:09:48;;;;;;;;;78.33;61.33;;;;;7.90;100.00;98936.59;6305114;20;3635659;-42
2024/03/02 03:12:18;;;;;;;;;77.00;59.67;;;;;8.01;100.00;98945.75;6307754;20;3627496;-41
2024/03/02 03:14:48;;;;;;;;;79.00;63.00;;;;;8.02;100.00;98940.28;6310166;20;3631531;-41
2024/03/02 03:17:17;;;;;;;;;82.67;64.67;;;;;7.98;100.00;98938.78;6311519;20;3661762;-43
2024/03/02 03:19:47;;;;;;;;;87.33;74.00;;;;;7.74;100.00;98937.63;6276801;20;3672163;-40
2024/03/02 03:22:17;;;;;;;;;81.33;68.33;;;;;8.18;100.00;98944.66;6279106;20;3662880;-42
2024/03/02 03:24:47;;;;;;;;;71.67;54.33;;;;;8.21;100.00;98944.47;6275463;20;3634683;-41
2024/03/02 03:27:16;;;;;;;;;77.33;62.33;;;;;7.60;100.00;98944.66;6312125;20;3631599;-40
2024/03/02 03:29:46;;;;;;;;;78.67;60.00;;;;;7.62;100.00;98940.09;6309599;20;3627407;-43
2024/03/02 03:32:16;;;;;;;;;72.67;57.67;;;;;7.91;100.00;98942.78;6308983;20;3620078;-41
2024/03/02 03:34:47;;;;;;;;;76.00;59.33;;;;;7.82;100.00;98948.69;6309913;20;3616917;-44
2024/03/02 03:37:17;;;;;;;;;75.00;59.00;;;;;7.79;100.00;98952.41;6309894;20;3613906;-43
2024/03/02 03:39:47;;;;;;;;;83.00;64.33;;;;;7.70;100.00;98951.16;6310584;20;3690913;-42
2024/03/02 03:42:17;;;;;;;;;85.67;69.00;;;;;7.76;100.00;98954.41;6276822;20;3664985;-46
2024/03/02 03:44:46;;;;;;;;;94.33;90.67;;;;;7.75;100.00;98950.03;6277917;20;3636748;-42
2024/03/02 03:47:16;;;;;;;;;91.33;80.67;;;;;7.76;100.00;98954.41;6309888;20;3657556;-43
2024/03/02 03:49:46;;;;;;;;;90.33;82.33;;;;;7.89;100.00;98950.03;6274407;20;3659655;-43
2024/03/02 03:52:15;;;;;;;;;91.00;76.67;;;;;7.84;100.00;98954.78;6278205;20;3678407;-41
2024/03/02 03:54:45;;;;;;;;;80.67;66.67;;;;;8.02;100.00;98952.78;6276063;20;3645209;-41
2024/03/02 03:57:14;;;;;;;;;80.00;65.67;;;;;7.86;100.00;98950.22;6311396;20;3656499;-43
2024/03/02 03:59:44;;;;;;;;;78.00;60.33;;;;;8.08;100.00;98950.59;6311632;20;3629658;-41
2024/03/02 04:02:14;;;;;;;;;78.67;62.33;;;;;8.14;100.00;98955.56;6308198;20;3644029;-43
2024/03/02 04:04:47;;;;;;;;;76.33;59.67;;;;;7.88;100.00;98951.00;6306289;20;3630521;-42
2024/03/02 04:07:17;;;;;;;;;83.00;61.00;;;;;7.77;100.00;98946.31;6310689;20;3666949;-47
2024/03/02 04:09:46;;;;;;;;;77.00;60.33;;;;;8.09;100.00;98946.13;6277923;20;3621226;-41
2024/03/02 04:12:16;;;;;;;;;80.00;63.00;;;;;8.09;100.00;98946.13;6308771;20;3651476;-41
2024/03/02 04:14:46;;;;;;;;;77.67;59.33;;;;;8.13;100.00;98948.47;6308584;20;3634669;-41
2024/03/02 04:17:15;;;;;;;;;74.67;60.67;;;;;8.13;100.00;98947.63;6309377;20;3599303;-43
2024/03/02 04:19:45;;;;;;;;;82.33;61.67;;;;;8.32;100.00;98947.28;6310590;20;3655645;-41
2024/03/02 04:22:14;;;;;;;;;80.67;66.33;;;;;8.09;100.00;98944.28;6276816;20;3647127;-43
2024/03/02 04:24:54;;;;;;;;;78.33;61.00;;;;;8.06;100.00;98951.66;6308495;20;3656661;-45
2024/03/02 04:27:24;;;;;;;;;87.00;73.25;;;;;8.16;100.00;98947.41;6312576;20;4424198;-42
2024/03/02 04:29:53;;;;;;;;;80.00;66.33;;;;;8.25;100.00;98944.16;6309034;20;3636845;-41
2024/03/02 04:32:23;;;;;;;;;83.50;70.00;;;;;8.10;100.00;98948.66;6311431;20;4416007;-42
2024/03/02 04:34:51;;;;;;;;;78.33;63.00;;;;;7.52;100.00;98941.59;6310316;20;3642985;-42
2024/03/02 04:37:21;;;;;;;;;78.00;60.67;;;;;7.40;100.00;98937.88;6275530;20;3645072;-41
2024/03/02 04:39:50;;;;;;;;;79.33;62.67;;;;;7.32;100.00;98939.28;6312340;20;3630582;-42
2024/03/02 04:42:19;;;;;;;;;75.67;58.00;;;;;7.86;100.00;98939.53;6278463;20;3631693;-42
2024/03/02 04:44:49;;;;;;;;;74.33;59.67;;;;;7.92;100.00;98936.47;6305786;20;2861951;-46
2024/03/02 04:47:19;;;;;;;;;86.33;74.67;;;;;8.01;100.00;98929.69;6309692;20;3670266;-41
2024/03/02 04:49:48;;;;;;;;;77.67;62.00;;;;;7.88;100.00;98929.63;6274941;20;3623191;-41
2024/03/02 04:52:17;;;;;;;;;74.00;57.33;;;;;7.78;100.00;98932.00;6310374;20;3624359;-42
2024/03/02 04:57:35;;;;;;;;;80.00;61.33;;;;;7.41;100.00;98944.09;6310553;20;3644099;-46
2024/03/02 05:00:07;;;;;;;;;75.67;59.00;;;;;7.33;100.00;98947.22;6310467;20;3627375;-43
2024/03/02 05:02:37;;;;;;;;;76.67;60.00;;;;;7.35;100.00;98947.13;6306331;20;3633651;-44
2024/03/02 05:05:06;;;;;;;;;75.33;58.67;;;;;7.34;100.00;98953.41;6311108;20;3610730;-42
2024/03/02 05:07:35;;;;;;;;;72.33;58.00;;;;;7.64;100.00;98951.56;6280955;20;3591933;-42
2024/03/02 05:10:04;;;;;;;;;72.33;57.67;;;;;7.51;100.00;98961.28;6277874;20;2863971;-42
2024/03/02 05:15:14;;;;;;;;;76.00;58.33;;;;;7.54;100.00;98966.41;6305740;20;3606492;-41
2024/03/02 05:17:44;;;;;;;;;79.67;59.67;;;;;7.39;100.00;98957.50;6308728;20;3647145;-41
2024/03/02 05:20:14;;;;;;;;;78.00;59.00;;;;;7.51;100.00;98965.75;6308586;20;3624308;-42
2024/03/02 05:22:44;;;;;;;;;64.00;48.33;;;;;7.59;100.00;98967.00;6307266;20;3616926;-41
2024/03/02 05:25:13;;;;;;;;;73.00;56.33;;;;;7.80;100.00;98966.66;6305765;20;3632580;-42
2024/03/02 05:27:43;;;;;;;;;76.67;59.00;;;;;7.89;100.00;98971.41;6305443;20;3631603;-43
2024/03/02 05:30:13;;;;;;;;;80.33;62.00;;;;;7.89;100.00;98971.41;6272803;20;3640911;-42
2024/03/02 05:32:43;;;;;;;;;75.00;58.00;;;;;7.89;100.00;98974.94;6308683;20;3611738;-41
2024/03/02 05:35:12;;;;;;;;;78.00;60.33;;;;;7.78;100.00;98980.09;6305224;20;3635670;-45
2024/03/02 05:37:42;;;;;;;;;78.33;60.33;;;;;7.85;100.00;98980.59;6308208;20;3632611;-41
2024/03/02 05:40:13;;;;;;;;;79.67;58.67;;;;;7.80;100.00;98978.19;6309712;20;3665882;-41
2024/03/02 05:42:42;;;;;;;;;77.33;59.00;;;;;7.89;100.00;98976.75;6276079;20;3620074;-42
2024/03/02 05:45:12;;;;;;;;;82.00;62.00;;;;;7.90;100.00;98978.50;6306932;20;3651308;-40
2024/03/02 05:47:41;;;;;;;;;73.00;57.00;;;;;7.88;100.00;98983.06;6306996;20;2881582;-42
2024/03/02 05:50:11;;;;;;;;;76.00;60.00;;;;;7.96;100.00;98988.78;6304734;20;3625252;-41
2024/03/02 05:52:40;;;;;;;;;76.67;60.67;;;;;8.04;100.00;98985.66;6310822;20;3622284;-42
2024/03/02 05:55:09;;;;;;;;;77.33;58.33;;;;;8.07;100.00;98997.00;6273987;20;3647216;-42
2024/03/02 05:57:59;;;;;;;;;77.67;61.33;;;;;7.90;100.00;98995.38;6307246;20;3637857;-41
2024/03/02 06:00:30;;;;;;;;;78.33;60.67;;;;;7.81;100.00;99001.28;6304872;20;3650284;-42
2024/03/02 06:03:00;;;;;;;;;69.67;53.67;;;;;7.66;100.00;99002.19;6305568;20;3622140;-41
2024/03/02 06:05:29;;;;;;;;;74.00;59.67;;;;;7.83;100.00;99003.88;6306085;20;3620107;-41
2024/03/02 06:07:59;;;;;;;;;82.33;66.00;;;;;7.80;100.00;98998.72;6306018;20;3657011;-44
2024/03/02 06:10:28;;;;;;;;;74.00;59.00;;;;;8.04;100.00;98993.66;6271771;20;2871171;-44
2024/03/02 06:12:59;;;;;;;;;88.00;72.67;;;;;8.33;100.00;99006.06;6305984;20;3676295;-43
2024/03/02 06:15:30;;;;;;;;;91.00;77.00;;;;;8.10;100.00;99002.13;6274185;20;3681776;-45
2024/03/02 06:18:00;;;;;;;;;97.67;83.00;;;;;8.07;100.00;99002.34;6305859;20;3671208;-46
2024/03/02 06:20:30;;;;;;;;;90.50;81.00;;;;;8.12;100.00;99002.06;6272410;20;1935729;-43
2024/03/02 06:23:05;;;;;;;;;89.00;78.33;;;;;8.20;100.00;99006.94;6271370;20;3661715;-45
2024/03/02 06:25:35;;;;;;;;;86.67;74.00;;;;;8.23;100.00;99004.06;6269388;20;3667982;-40
2024/03/02 06:28:05;;;;;;;;;92.00;79.33;;;;;8.16;100.00;99000.91;6272893;20;3653394;-44
2024/03/02 06:30:34;;;;;;;;;102.00;86.67;;;;;8.35;100.00;99005.97;6275148;20;3692968;-44
2024/03/02 06:33:05;;;;;;;;;87.00;75.67;;;;;8.32;100.00;99006.13;6273853;20;3670939;-41
2024/03/02 06:35:35;;;;;;;;;89.67;78.00;;;;;8.63;100.00;99004.22;6276522;20;3662742;-42
2024/03/02 06:38:03;;;;;;;;;100.00;83.50;;;;;8.65;100.00;99010.34;6269980;20;1937806;-41
2024/03/02 06:40:33;;;;;;;;;97.25;83.25;;;;;8.44;100.00;99013.44;6276400;20;4420088;-42
2024/03/02 06:43:03;;;;;;;;;87.75;76.50;;;;;8.24;100.00;99013.78;6310709;20;4416885;-44
2024/03/02 06:45:34;;;;;;;;;85.00;73.67;;;;;8.49;100.00;99014.00;6305546;20;3648203;-41
2024/03/02 06:48:04;;;;;;;;;83.33;73.33;;;;;8.69;100.00;99017.19;6275216;20;3652398;-41
2024/03/02 06:50:34;;;;;;;;;80.00;62.67;;;;;8.68;100.00;99019.00;6278815;20;3663781;-42
2024/03/02 06:53:04;;;;;;;;;80.00;64.50;;;;;8.43;100.00;99024.25;6281597;20;3652327;-41
2024/03/02 06:55:33;;;;;;;;;78.00;58.25;;;;;8.56;100.00;99018.00;6311291;20;3637762;-40
2024/03/02 06:58:03;;;;;;;;;74.00;57.00;;;;;8.43;100.00;99021.56;6309618;20;3486770;-41
2024/03/02 07:00:33;;;;;;;;;103.00;92.67;;;;;8.64;100.00;99017.50;6309159;20;3697122;-43
2024/03/02 07:03:03;;;;;;;;;85.67;76.67;;;;;8.64;100.00;99022.00;6277823;20;3664877;-41
2024/03/02 07:05:33;;;;;;;;;77.67;60.67;;;;;8.71;100.00;99026.00;6278977;20;3637960;-44
2024/03/02 07:08:05;;;;;;;;;76.67;62.67;;;;;8.88;100.00;99017.72;6279599;20;3612775;-40
2024/03/02 07:10:33;;;;;;;;;84.50;76.00;;;;;8.79;100.00;99027.22;6312922;20;3597125;-41
2024/03/02 07:13:03;;;;;;;;;77.67;59.00;;;;;8.65;100.00;99018.38;6279933;20;3648247;-44
2024/03/02 07:18:20;;;;;;;;;74.00;56.33;;;;;8.84;100.00;99024.22;6312207;20;3621201;-43
2024/03/02 07:20:49;;;;;;;;;84.50;71.25;;;;;8.56;100.00;99026.03;6283203;20;4428394;-44
2024/03/02 07:23:24;;;;;;;;;101.00;86.86;;;;;8.82;100.00;99031.53;6323839;20;2535679;-44
2024/03/02 07:25:56;;;;;;;;;149.63;139.13;;;;;8.77;100.00;99034.50;6303875;20;3737847;-41
2024/03/02 07:28:29;;;;;;;;;78.00;61.33;;;;;8.44;100.00;99031.28;6275098;20;3638562;-43
2024/03/02 07:31:06;;;;;;;;;90.50;78.00;;;;;8.66;100.00;99025.44;6304899;20;1946316;-45
2024/03/02 07:33:36;;;;;;;;;371.25;285.50;;;;;8.74;100.00;99029.34;6275428;20;4528328;-42
2024/03/02 07:36:07;;;;;;;;;80.33;62.33;;;;;8.59;100.00;99034.81;6279994;20;3650727;-42
2024/03/02 07:38:37;;;;;;;;;293.75;217.50;;;;;8.64;100.00;99038.06;6275493;20;3721131;-47
2024/03/02 07:41:08;;;;;;;;;90.33;75.00;;;;;8.63;100.00;99042.53;6276911;20;3670063;-42
2024/03/02 07:43:40;;;;;;;;;140.88;117.38;;;;;8.62;100.00;99048.00;6272460;20;3724199;-43
2024/03/02 07:46:10;;;;;;;;;141.33;121.00;;;;;8.77;100.00;99052.38;6269311;20;3719103;-43
2024/03/02 07:48:40;;;;;;;;;84.00;69.00;;;;;8.79;100.00;99051.31;6277627;20;3660736;-41
2024/03/02 07:51:09;;;;;;;;;86.00;72.33;;;;;8.76;100.00;99048.81;6278621;20;3671113;-42
2024/03/02 07:53:39;;;;;;;;;73.33;56.67;;;;;8.72;100.00;99060.69;6279418;20;3610679;-42
2024/03/02 07:56:08;;;;;;;;;74.33;57.33;;;;;8.77;100.00;99049.69;6312627;20;3616915;-42
2024/03/02 07:58:37;;;;;;;;;75.67;56.67;;;;;8.71;100.00;99060.78;6276514;20;3644067;-40
2024/03/02 08:01:07;;;;;;;;;153.00;119.67;;;;;8.66;100.00;99052.19;6310119;20;3700577;-42
2024/03/02 08:03:38;;;;;;;;;81.00;62.50;;;;;8.56;100.00;99055.47;6275805;20;3608619;-40
2024/03/02 08:06:07;;;;;;;;;76.67;61.67;;;;;8.75;100.00;99056.97;6312218;20;3640934;-43
2024/03/02 08:08:37;;;;;;;;;352.25;297.50;;;;;8.54;100.00;99052.00;6275289;20;4507535;-41
2024/03/02 08:11:07;;;;;;;;;85.00;75.50;;;;;8.74;100.00;99060.56;6276231;20;4417938;-42
2024/03/02 08:13:36;;;;;;;;;84.25;73.00;;;;;8.95;100.00;99053.88;6312432;20;4413762;-40
2024/03/02 08:16:09;;;;;;;;;112.00;103.50;;;;;8.76;100.00;99054.16;6304672;20;1939890;-40
2024/03/02 08:18:37;;;;;;;;;103.00;89.50;;;;;9.09;100.00;99054.78;6275701;20;1936852;-40
2024/03/02 08:21:07;;;;;;;;;165.33;143.33;;;;;9.14;100.00;99063.38;6281902;20;3730452;-41
2024/03/02 08:23:38;;;;;;;;;95.50;84.50;;;;;9.43;100.00;99059.63;6279851;20;3651383;-39
2024/03/02 08:26:10;;;;;;;;;71.33;55.00;;;;;9.34;100.00;99060.22;6313853;20;3623200;-41
2024/03/02 08:28:42;;;;;;;;;66.67;53.67;;;;;9.14;100.00;99063.38;6279327;20;3593019;-41
2024/03/02 08:31:12;;;;;;;;;64.67;52.00;;;;;8.98;100.00;99060.84;6307110;20;2855541;-40
2024/03/02 08:33:41;;;;;;;;;66.00;51.33;;;;;9.29;100.00;99056.97;6308954;20;3610675;-42
2024/03/02 08:36:11;;;;;;;;;58.33;46.67;;;;;9.24;100.00;99053.75;6310693;20;3614938;-41
2024/03/02 08:38:41;;;;;;;;;60.00;49.00;;;;;9.45;100.00;99057.69;6307296;20;3627510;-43
2024/03/02 08:41:13;;;;;;;;;63.00;48.67;;;;;9.45;100.00;99062.16;6309659;20;3630509;-42
2024/03/02 08:43:43;;;;;;;;;55.67;46.00;;;;;8.96;100.00;99060.94;6306320;20;2861763;-40
2024/03/02 08:46:12;;;;;;;;;63.67;48.67;;;;;9.12;100.00;99060.78;6309706;20;3636771;-42
2024/03/02 08:48:41;;;;;;;;;70.67;52.00;;;;;9.05;100.00;99063.97;6309689;20;3633641;-42
2024/03/02 08:51:10;;;;;;;;;70.00;54.67;;;;;9.24;100.00;99064.44;6277773;20;3625353;-41
2024/03/02 08:53:39;;;;;;;;;60.33;47.33;;;;;9.04;100.00;99056.91;6277579;20;2877513;-41
2024/03/02 08:56:09;;;;;;;;;54.67;44.00;;;;;9.72;100.00;99067.50;6311163;20;3630536;-41
2024/03/02 08:58:39;;;;;;;;;63.67;49.00;;;;;9.44;100.00;99065.81;6309364;20;3628354;-44
2024/03/02 09:01:08;;;;;;;;;56.33;44.67;;;;;9.67;100.00;99064.28;6304293;20;3611885;-41
2024/03/02 09:03:38;;;;;;;;;48.67;41.67;;;;;9.65;100.00;99063.53;6305723;20;2857668;-41
2024/03/02 09:06:07;;;;;;;;;64.00;51.67;;;;;9.53;100.00;99064.34;6313486;20;3600265;-41
2024/03/02 09:08:36;;;;;;;;;68.33;54.00;;;;;9.44;100.00;99064.00;6278328;20;3614826;-39
2024/03/02 09:11:07;;;;;;;;;74.25;59.25;;;;;9.65;100.00;99064.38;6306199;20;3644055;-40
2024/03/02 09:13:38;;;;;;;;;71.67;57.00;;;;;9.52;100.00;99065.31;6309705;20;3635665;-39
2024/03/02 09:16:10;;;;;;;;;63.33;50.33;;;;;9.58;100.00;99062.22;6276716;20;3617970;-41
2024/03/02 09:18:40;;;;;;;;;52.67;42.00;;;;;9.71;100.00;99072.97;6308267;20;2863923;-40
2024/03/02 09:21:10;;;;;;;;;51.67;43.33;;;;;9.70;100.00;99072.09;6309159;20;3611786;-41
2024/03/02 09:23:40;;;;;;;;;46.00;37.50;;;;;9.55;100.00;99067.78;6309382;20;2839868;-42
2024/03/02 09:26:09;;;;;;;;;51.33;42.67;;;;;9.22;100.00;99069.09;6274941;20;2862884;-39
2024/03/02 09:28:39;;;;;;;;;62.33;47.00;;;;;9.45;100.00;99067.53;6304953;20;3637802;-39
2024/03/02 09:31:08;;;;;;;;;52.00;42.00;;;;;9.42;100.00;99068.59;6305196;20;2862752;-40
2024/03/02 09:33:39;;;;;;;;;45.00;39.00;;;;;9.36;100.00;99069.00;6307377;20;2846572;-42
2024/03/02 09:36:22;;;;;;;;;48.00;39.00;;;;;9.45;100.00;99072.88;6274487;20;2841984;-42
2024/03/02 09:38:50;;;;;;;;;44.50;37.00;;;;;9.41;100.00;99069.56;6276731;20;2850376;-43
2024/03/02 09:41:20;;;;;;;;;47.50;39.00;;;;;9.49;100.00;99069.06;6274952;20;2846133;-45
2024/03/02 09:43:49;;;;;;;;;48.75;39.75;;;;;9.43;100.00;99067.66;6276537;20;3605455;-40
2024/03/02 09:46:20;;;;;;;;;48.67;40.67;;;;;9.56;100.00;99075.72;6304878;20;3606629;-40
2024/03/02 09:48:49;;;;;;;;;47.00;39.33;;;;;9.62;100.00;99069.94;6308943;20;2859810;-40
2024/03/02 09:51:20;;;;;;;;;48.00;40.33;;;;;9.28;100.00;99065.97;6307049;20;2852498;-40
2024/03/02 09:53:51;;;;;;;;;55.67;42.67;;;;;9.27;100.00;99069.63;6305632;20;3609729;-42
2024/03/02 09:56:21;;;;;;;;;47.33;38.00;;;;;9.40;100.00;99065.19;6310393;20;3586697;-42
2024/03/02 09:58:49;;;;;;;;;51.50;40.00;;;;;9.27;100.00;99064.28;6275683;20;2864872;-41
2024/03/02 10:01:18;;;;;;;;;48.50;40.50;;;;;9.53;100.00;99065.22;6276640;20;2853384;-41
2024/03/02 10:03:50;;;;;;;;;52.00;42.00;;;;;9.72;100.00;99072.00;6276989;20;2856590;-41
2024/03/02 10:06:27;;;;;;;;;54.67;44.67;;;;;9.55;100.00;99063.28;6275215;20;3619214;-41
2024/03/02 10:08:57;;;;;;;;;55.33;43.00;;;;;9.65;100.00;99063.53;6311439;20;2868050;-40
2024/03/02 10:11:34;;;;;;;;;49.50;42.00;;;;;9.50;100.00;99059.19;6309890;20;2855571;-41
2024/03/02 10:14:13;;;;;;;;;43.00;38.00;;;;;9.51;100.00;99058.25;6307838;20;2844082;-43
2024/03/02 10:16:46;;;;;;;;;54.00;43.00;;;;;9.42;100.00;99054.34;6277556;20;3612757;-42
2024/03/02 10:19:18;;;;;;;;;53.33;42.67;;;;;9.88;100.00;99054.75;6308285;20;3610737;-41
2024/03/02 10:21:53;;;;;;;;;53.00;43.67;;;;;9.19;100.00;99055.91;6310194;20;3610651;-42
2024/03/02 10:24:23;;;;;;;;;51.00;41.00;;;;;9.39;100.00;99055.41;6313099;20;3613904;-41
2024/03/02 10:26:54;;;;;;;;;53.00;44.67;;;;;9.31;100.00;99051.53;6313712;20;3615136;-42
2024/03/02 10:29:23;;;;;;;;;49.33;40.67;;;;;9.65;100.00;99053.66;6317172;20;3606530;-42
2024/03/02 10:31:52;;;;;;;;;50.00;42.00;;;;;9.76;100.00;99060.97;6281562;20;2868121;-42
2024/03/02 10:34:22;;;;;;;;;46.67;40.00;;;;;9.58;100.00;99063.06;6316444;20;3602390;-41
2024/03/02 10:36:51;;;;;;;;;39.00;34.00;;;;;9.60;100.00;99061.16;6279970;20;2841046;-41
2024/03/02 10:39:21;;;;;;;;;51.00;39.67;;;;;9.60;100.00;99055.78;6283395;20;2873321;-40
2024/03/02 10:41:53;;;;;;;;;42.67;36.67;;;;;9.84;100.00;99063.13;6315097;20;3579451;-40
2024/03/02 10:44:23;;;;;;;;;43.67;37.33;;;;;9.75;100.00;99061.94;6303890;20;2855590;-39
2024/03/02 10:46:56;;;;;;;;;47.00;37.67;;;;;9.87;100.00;99062.91;6310419;20;2862793;-40
2024/03/02 10:49:26;;;;;;;;;43.67;37.33;;;;;9.75;100.00;99055.72;6312966;20;3574233;-40
2024/03/02 10:51:55;;;;;;;;;48.50;38.00;;;;;9.73;100.00;99055.81;6310558;20;2858604;-41
2024/03/02 10:54:29;;;;;;;;;44.00;36.00;;;;;9.86;100.00;99055.84;6279378;20;2838893;-39
2024/03/02 10:57:00;;;;;;;;;39.00;33.00;;;;;9.96;100.00;99056.06;6281327;20;2871252;-40
2024/03/02 10:59:34;;;;;;;;;42.50;36.00;;;;;9.91;100.00;99052.84;6309759;20;2850268;-41
2024/03/02 11:02:06;;;;;;;;;36.33;31.67;;;;;9.61;100.00;99056.63;6280884;20;2853483;-42
2024/03/02 11:04:36;;;;;;;;;36.33;34.00;;;;;9.61;100.00;99053.97;6312518;20;3603407;-41
2024/03/02 11:07:12;;;;;;;;;36.67;33.00;;;;;9.43;100.00;99056.94;6280678;20;3606500;-43
2024/03/02 11:09:58;;;;;;;;;36.50;34.00;;;;;9.32;100.00;99046.09;6315247;20;2594028;-40
2024/03/02 11:12:48;;;;;;;;;36.67;33.33;;;;;9.44;100.00;99053.28;6276880;20;2857612;-40
2024/03/02 11:15:19;;;;;;;;;37.33;32.33;;;;;9.50;100.00;99048.47;6310344;20;3602429;-40
2024/03/02 11:17:50;;;;;;;;;34.00;32.67;;;;;9.40;100.00;99053.56;6279161;20;2861852;-40
2024/03/02 11:20:20;;;;;;;;;36.00;32.00;;;;;9.27;100.00;99045.53;6312987;20;3608551;-43
2024/03/02 11:22:50;;;;;;;;;30.33;28.00;;;;;9.46;100.00;99053.19;6279241;20;2862804;-40
2024/03/02 11:25:27;;;;;;;;;38.67;31.67;;;;;9.49;100.00;99046.75;6312048;20;3586713;-41